sensor_id;sensor_type;location;lat;lon;timestamp;P1;durP1;ratioP1;P2;durP2;ratioP2
77736;SDS011;66903;59.926;30.404;2023-03-23T00:03:16;2.67;;;0.90;;
77736;SDS011;66903;59.926;30.404;2023-03-23T00:08:17;3.85;;;1.00;;
77736;SDS011;66903;59.926;30.404;2023-03-23T00:13:25;3.40;;;1.20;;
77736;SDS011;66903;59.926;30.404;2023-03-23T00:18:27;2.63;;;1.00;;
77736;SDS011;66903;59.926;30.404;2023-03-23T00:23:27;3.20;;;0.90;;
77736;SDS011;66903;59.926;30.404;2023-03-23T00:34:25;2.38;;;0.68;;
77736;SDS011;66903;59.926;30.404;2023-03-23T00:39:26;3.08;;;1.05;;
77736;SDS011;66903;59.926;30.404;2023-03-23T00:44:28;2.92;;;0.90;;
77736;SDS011;66903;59.926;30.404;2023-03-23T00:49:30;3.78;;;1.05;;
77736;SDS011;66903;59.926;30.404;2023-03-23T00:54:34;3.22;;;1.00;;
77736;SDS011;66903;59.926;30.404;2023-03-23T00:59:37;2.75;;;1.00;;
77736;SDS011;66903;59.926;30.404;2023-03-23T01:04:38;2.38;;;0.80;;
77736;SDS011;66903;59.926;30.404;2023-03-23T01:09:39;2.80;;;0.90;;
77736;SDS011;66903;59.926;30.404;2023-03-23T01:14:40;2.78;;;1.23;;
77736;SDS011;66903;59.926;30.404;2023-03-23T01:19:41;2.97;;;0.90;;
77736;SDS011;66903;59.926;30.404;2023-03-23T01:24:42;4.78;;;1.13;;
77736;SDS011;66903;59.926;30.404;2023-03-23T01:29:42;1.98;;;0.70;;
77736;SDS011;66903;59.926;30.404;2023-03-23T01:34:43;3.03;;;0.80;;
77736;SDS011;66903;59.926;30.404;2023-03-23T01:39:43;2.25;;;0.90;;
77736;SDS011;66903;59.926;30.404;2023-03-23T01:49:46;2.72;;;0.95;;
77736;SDS011;66903;59.926;30.404;2023-03-23T01:54:49;2.92;;;0.98;;
77736;SDS011;66903;59.926;30.404;2023-03-23T01:59:53;2.67;;;0.82;;
77736;SDS011;66903;59.926;30.404;2023-03-23T02:04:59;2.28;;;0.80;;
77736;SDS011;66903;59.926;30.404;2023-03-23T02:10:06;3.00;;;1.00;;
77736;SDS011;66903;59.926;30.404;2023-03-23T02:15:07;3.20;;;1.00;;
77736;SDS011;66903;59.926;30.404;2023-03-23T02:46:56;2.63;;;0.80;;
77736;SDS011;66903;59.926;30.404;2023-03-23T02:51:59;2.65;;;0.90;;
77736;SDS011;66903;59.926;30.404;2023-03-23T02:57:02;2.13;;;0.73;;
77736;SDS011;66903;59.926;30.404;2023-03-23T03:02:04;2.50;;;1.10;;
77736;SDS011;66903;59.926;30.404;2023-03-23T03:07:53;2.45;;;0.90;;
77736;SDS011;66903;59.926;30.404;2023-03-23T03:23:09;2.45;;;0.85;;
77736;SDS011;66903;59.926;30.404;2023-03-23T03:28:14;4.70;;;1.00;;
77736;SDS011;66903;59.926;30.404;2023-03-23T03:33:17;1.85;;;0.68;;
77736;SDS011;66903;59.926;30.404;2023-03-23T03:38:20;2.45;;;0.82;;
77736;SDS011;66903;59.926;30.404;2023-03-23T03:43:21;3.35;;;1.13;;
77736;SDS011;66903;59.926;30.404;2023-03-23T03:48:22;2.17;;;0.80;;
77736;SDS011;66903;59.926;30.404;2023-03-23T03:53:23;3.10;;;1.00;;
77736;SDS011;66903;59.926;30.404;2023-03-23T03:58:23;2.30;;;0.85;;
77736;SDS011;66903;59.926;30.404;2023-03-23T04:03:25;2.70;;;0.80;;
77736;SDS011;66903;59.926;30.404;2023-03-23T04:08:27;2.58;;;0.98;;
77736;SDS011;66903;59.926;30.404;2023-03-23T04:13:27;2.55;;;0.80;;
77736;SDS011;66903;59.926;30.404;2023-03-23T04:18:28;3.00;;;1.00;;
77736;SDS011;66903;59.926;30.404;2023-03-23T04:23:29;3.20;;;1.00;;
77736;SDS011;66903;59.926;30.404;2023-03-23T04:28:33;4.47;;;0.88;;
77736;SDS011;66903;59.926;30.404;2023-03-23T04:33:34;2.38;;;0.80;;
77736;SDS011;66903;59.926;30.404;2023-03-23T04:38:34;3.00;;;1.20;;
77736;SDS011;66903;59.926;30.404;2023-03-23T04:43:35;3.05;;;1.00;;
77736;SDS011;66903;59.926;30.404;2023-03-23T04:48:41;2.88;;;1.00;;
77736;SDS011;66903;59.926;30.404;2023-03-23T04:53:42;2.17;;;1.00;;
77736;SDS011;66903;59.926;30.404;2023-03-23T04:58:42;2.30;;;0.90;;
77736;SDS011;66903;59.926;30.404;2023-03-23T05:03:44;3.67;;;1.10;;
77736;SDS011;66903;59.926;30.404;2023-03-23T05:08:44;8.80;;;1.05;;
77736;SDS011;66903;59.926;30.404;2023-03-23T05:13:45;2.85;;;1.05;;
77736;SDS011;66903;59.926;30.404;2023-03-23T05:18:45;2.53;;;0.82;;
77736;SDS011;66903;59.926;30.404;2023-03-23T05:23:46;2.88;;;1.02;;
77736;SDS011;66903;59.926;30.404;2023-03-23T05:28:47;2.65;;;0.90;;
77736;SDS011;66903;59.926;30.404;2023-03-23T05:33:48;3.40;;;0.80;;
77736;SDS011;66903;59.926;30.404;2023-03-23T05:38:52;3.08;;;1.00;;
77736;SDS011;66903;59.926;30.404;2023-03-23T05:43:52;3.08;;;0.85;;
77736;SDS011;66903;59.926;30.404;2023-03-23T05:48:53;3.30;;;1.00;;
77736;SDS011;66903;59.926;30.404;2023-03-23T05:53:53;2.08;;;0.80;;
77736;SDS011;66903;59.926;30.404;2023-03-23T05:58:54;2.55;;;0.93;;
77736;SDS011;66903;59.926;30.404;2023-03-23T06:03:55;2.60;;;0.88;;
77736;SDS011;66903;59.926;30.404;2023-03-23T06:08:58;2.25;;;0.70;;
77736;SDS011;66903;59.926;30.404;2023-03-23T06:13:59;3.13;;;1.08;;
77736;SDS011;66903;59.926;30.404;2023-03-23T06:19:00;2.65;;;0.85;;
77736;SDS011;66903;59.926;30.404;2023-03-23T06:24:03;2.55;;;0.90;;
77736;SDS011;66903;59.926;30.404;2023-03-23T06:29:05;2.50;;;0.88;;
77736;SDS011;66903;59.926;30.404;2023-03-23T06:34:11;3.67;;;1.00;;
77736;SDS011;66903;59.926;30.404;2023-03-23T06:39:11;2.40;;;0.70;;
77736;SDS011;66903;59.926;30.404;2023-03-23T06:44:12;2.97;;;0.90;;
77736;SDS011;66903;59.926;30.404;2023-03-23T06:49:13;2.17;;;0.90;;
77736;SDS011;66903;59.926;30.404;2023-03-23T06:54:13;3.42;;;0.90;;
77736;SDS011;66903;59.926;30.404;2023-03-23T06:59:14;2.78;;;0.90;;
77736;SDS011;66903;59.926;30.404;2023-03-23T07:04:15;2.75;;;0.90;;
77736;SDS011;66903;59.926;30.404;2023-03-23T07:09:16;2.55;;;0.90;;
77736;SDS011;66903;59.926;30.404;2023-03-23T07:14:16;2.15;;;0.68;;
77736;SDS011;66903;59.926;30.404;2023-03-23T07:19:17;2.10;;;0.80;;
77736;SDS011;66903;59.926;30.404;2023-03-23T07:24:18;2.45;;;0.90;;
77736;SDS011;66903;59.926;30.404;2023-03-23T07:29:19;3.15;;;1.00;;
77736;SDS011;66903;59.926;30.404;2023-03-23T07:34:20;2.53;;;0.98;;
77736;SDS011;66903;59.926;30.404;2023-03-23T07:39:20;2.65;;;0.80;;
77736;SDS011;66903;59.926;30.404;2023-03-23T07:44:23;2.20;;;0.80;;
77736;SDS011;66903;59.926;30.404;2023-03-23T07:49:23;1.92;;;0.70;;
77736;SDS011;66903;59.926;30.404;2023-03-23T07:54:24;3.38;;;1.02;;
77736;SDS011;66903;59.926;30.404;2023-03-23T07:59:25;2.13;;;0.65;;
77736;SDS011;66903;59.926;30.404;2023-03-23T08:04:26;2.92;;;0.95;;
77736;SDS011;66903;59.926;30.404;2023-03-23T08:09:27;2.22;;;0.77;;
77736;SDS011;66903;59.926;30.404;2023-03-23T08:14:28;2.70;;;0.80;;
77736;SDS011;66903;59.926;30.404;2023-03-23T08:19:29;3.65;;;0.90;;
77736;SDS011;66903;59.926;30.404;2023-03-23T08:24:31;2.38;;;0.77;;
77736;SDS011;66903;59.926;30.404;2023-03-23T08:29:32;1.92;;;0.60;;
77736;SDS011;66903;59.926;30.404;2023-03-23T08:34:33;2.47;;;0.80;;
77736;SDS011;66903;59.926;30.404;2023-03-23T08:39:33;2.83;;;1.02;;
77736;SDS011;66903;59.926;30.404;2023-03-23T08:44:34;1.27;;;0.57;;
77736;SDS011;66903;59.926;30.404;2023-03-23T08:49:35;2.42;;;0.80;;
77736;SDS011;66903;59.926;30.404;2023-03-23T08:54:35;1.70;;;0.63;;
77736;SDS011;66903;59.926;30.404;2023-03-23T08:59:36;6.15;;;0.80;;
77736;SDS011;66903;59.926;30.404;2023-03-23T09:04:36;1.73;;;0.70;;
77736;SDS011;66903;59.926;30.404;2023-03-23T09:09:42;2.50;;;1.10;;
77736;SDS011;66903;59.926;30.404;2023-03-23T09:19:51;3.97;;;0.85;;
77736;SDS011;66903;59.926;30.404;2023-03-23T09:24:52;2.25;;;0.73;;
77736;SDS011;66903;59.926;30.404;2023-03-23T09:29:53;5.28;;;1.85;;
77736;SDS011;66903;59.926;30.404;2023-03-23T09:34:53;6.45;;;3.70;;
77736;SDS011;66903;59.926;30.404;2023-03-23T09:39:56;8.57;;;4.45;;
77736;SDS011;66903;59.926;30.404;2023-03-23T09:50:20;9.77;;;4.65;;
77736;SDS011;66903;59.926;30.404;2023-03-23T09:55:26;6.90;;;3.92;;
77736;SDS011;66903;59.926;30.404;2023-03-23T10:00:36;7.07;;;3.15;;
77736;SDS011;66903;59.926;30.404;2023-03-23T10:05:44;6.50;;;2.92;;
77736;SDS011;66903;59.926;30.404;2023-03-23T10:15:47;6.15;;;2.20;;
77736;SDS011;66903;59.926;30.404;2023-03-23T10:30:55;5.15;;;1.80;;
77736;SDS011;66903;59.926;30.404;2023-03-23T10:36:03;5.53;;;1.90;;
77736;SDS011;66903;59.926;30.404;2023-03-23T10:41:10;6.00;;;2.30;;
77736;SDS011;66903;59.926;30.404;2023-03-23T10:46:34;5.45;;;1.45;;
77736;SDS011;66903;59.926;30.404;2023-03-23T10:51:44;4.97;;;1.70;;
77736;SDS011;66903;59.926;30.404;2023-03-23T10:56:53;4.45;;;1.35;;
77736;SDS011;66903;59.926;30.404;2023-03-23T11:01:58;3.83;;;1.23;;
77736;SDS011;66903;59.926;30.404;2023-03-23T11:07:02;3.97;;;1.40;;
77736;SDS011;66903;59.926;30.404;2023-03-23T11:12:03;4.43;;;1.10;;
77736;SDS011;66903;59.926;30.404;2023-03-23T11:17:05;4.28;;;1.20;;
77736;SDS011;66903;59.926;30.404;2023-03-23T11:27:28;3.55;;;1.15;;
77736;SDS011;66903;59.926;30.404;2023-03-23T11:32:29;2.47;;;0.90;;
77736;SDS011;66903;59.926;30.404;2023-03-23T11:37:35;2.90;;;0.90;;
77736;SDS011;66903;59.926;30.404;2023-03-23T11:42:47;4.50;;;1.00;;
77736;SDS011;66903;59.926;30.404;2023-03-23T11:48:03;2.50;;;1.00;;
77736;SDS011;66903;59.926;30.404;2023-03-23T11:58:41;2.40;;;1.10;;
77736;SDS011;66903;59.926;30.404;2023-03-23T12:09:19;4.22;;;1.10;;
77736;SDS011;66903;59.926;30.404;2023-03-23T12:30:31;3.63;;;1.00;;
77736;SDS011;66903;59.926;30.404;2023-03-23T12:41:26;2.25;;;0.70;;
77736;SDS011;66903;59.926;30.404;2023-03-23T12:46:36;3.25;;;0.70;;
77736;SDS011;66903;59.926;30.404;2023-03-23T13:01:56;3.55;;;1.00;;
77736;SDS011;66903;59.926;30.404;2023-03-23T13:07:05;3.40;;;1.38;;
77736;SDS011;66903;59.926;30.404;2023-03-23T13:12:10;3.30;;;0.82;;
77736;SDS011;66903;59.926;30.404;2023-03-23T13:28:00;4.22;;;0.82;;
77736;SDS011;66903;59.926;30.404;2023-03-23T13:33:05;2.97;;;0.77;;
77736;SDS011;66903;59.926;30.404;2023-03-23T13:38:19;2.65;;;0.70;;
77736;SDS011;66903;59.926;30.404;2023-03-23T13:43:25;4.57;;;1.00;;
77736;SDS011;66903;59.926;30.404;2023-03-23T13:48:28;3.15;;;0.85;;
77736;SDS011;66903;59.926;30.404;2023-03-23T13:53:44;5.60;;;0.98;;
77736;SDS011;66903;59.926;30.404;2023-03-23T13:58:47;4.18;;;1.10;;
77736;SDS011;66903;59.926;30.404;2023-03-23T14:03:53;6.50;;;1.17;;
77736;SDS011;66903;59.926;30.404;2023-03-23T14:08:56;3.03;;;0.82;;
77736;SDS011;66903;59.926;30.404;2023-03-23T14:14:05;2.30;;;0.63;;
77736;SDS011;66903;59.926;30.404;2023-03-23T14:19:15;5.45;;;1.42;;
77736;SDS011;66903;59.926;30.404;2023-03-23T14:24:24;3.78;;;0.82;;
77736;SDS011;66903;59.926;30.404;2023-03-23T14:29:26;4.60;;;0.80;;
77736;SDS011;66903;59.926;30.404;2023-03-23T14:34:28;4.15;;;0.70;;
77736;SDS011;66903;59.926;30.404;2023-03-23T14:39:31;3.05;;;0.68;;
77736;SDS011;66903;59.926;30.404;2023-03-23T14:44:34;2.10;;;0.55;;
77736;SDS011;66903;59.926;30.404;2023-03-23T14:49:43;3.10;;;0.73;;
77736;SDS011;66903;59.926;30.404;2023-03-23T14:54:45;1.52;;;0.50;;
77736;SDS011;66903;59.926;30.404;2023-03-23T14:59:46;2.08;;;0.95;;
77736;SDS011;66903;59.926;30.404;2023-03-23T15:04:49;1.75;;;0.70;;
77736;SDS011;66903;59.926;30.404;2023-03-23T15:09:52;2.67;;;0.80;;
77736;SDS011;66903;59.926;30.404;2023-03-23T15:14:57;2.50;;;0.70;;
77736;SDS011;66903;59.926;30.404;2023-03-23T15:20:07;4.85;;;0.90;;
77736;SDS011;66903;59.926;30.404;2023-03-23T15:35:34;1.65;;;0.50;;
77736;SDS011;66903;59.926;30.404;2023-03-23T15:40:37;2.22;;;0.60;;
77736;SDS011;66903;59.926;30.404;2023-03-23T15:45:38;3.40;;;0.70;;
77736;SDS011;66903;59.926;30.404;2023-03-23T15:50:39;2.95;;;0.85;;
77736;SDS011;66903;59.926;30.404;2023-03-23T15:55:41;2.65;;;0.60;;
77736;SDS011;66903;59.926;30.404;2023-03-23T16:00:42;2.50;;;0.57;;
77736;SDS011;66903;59.926;30.404;2023-03-23T16:05:44;2.15;;;0.70;;
77736;SDS011;66903;59.926;30.404;2023-03-23T16:10:45;4.72;;;1.20;;
77736;SDS011;66903;59.926;30.404;2023-03-23T16:15:47;3.53;;;0.90;;
77736;SDS011;66903;59.926;30.404;2023-03-23T16:20:48;3.70;;;1.08;;
77736;SDS011;66903;59.926;30.404;2023-03-23T16:25:49;4.90;;;1.10;;
77736;SDS011;66903;59.926;30.404;2023-03-23T16:30:50;4.15;;;0.88;;
77736;SDS011;66903;59.926;30.404;2023-03-23T16:35:50;3.97;;;1.48;;
77736;SDS011;66903;59.926;30.404;2023-03-23T16:40:51;3.40;;;1.10;;
77736;SDS011;66903;59.926;30.404;2023-03-23T16:45:53;5.50;;;1.13;;
77736;SDS011;66903;59.926;30.404;2023-03-23T16:50:55;3.70;;;1.00;;
77736;SDS011;66903;59.926;30.404;2023-03-23T16:55:56;3.47;;;0.95;;
77736;SDS011;66903;59.926;30.404;2023-03-23T17:00:57;3.35;;;0.98;;
77736;SDS011;66903;59.926;30.404;2023-03-23T17:06:00;6.72;;;1.10;;
77736;SDS011;66903;59.926;30.404;2023-03-23T17:11:01;2.25;;;0.80;;
77736;SDS011;66903;59.926;30.404;2023-03-23T17:16:01;3.60;;;0.90;;
77736;SDS011;66903;59.926;30.404;2023-03-23T17:21:02;2.38;;;0.68;;
77736;SDS011;66903;59.926;30.404;2023-03-23T17:26:02;2.70;;;0.80;;
77736;SDS011;66903;59.926;30.404;2023-03-23T17:31:03;2.80;;;0.80;;
77736;SDS011;66903;59.926;30.404;2023-03-23T17:36:05;2.50;;;0.75;;
77736;SDS011;66903;59.926;30.404;2023-03-23T17:41:06;3.28;;;0.90;;
77736;SDS011;66903;59.926;30.404;2023-03-23T17:46:07;2.55;;;0.80;;
77736;SDS011;66903;59.926;30.404;2023-03-23T17:51:09;1.48;;;0.70;;
77736;SDS011;66903;59.926;30.404;2023-03-23T17:56:09;3.30;;;1.02;;
77736;SDS011;66903;59.926;30.404;2023-03-23T18:01:10;1.52;;;0.65;;
77736;SDS011;66903;59.926;30.404;2023-03-23T18:06:11;4.72;;;0.70;;
77736;SDS011;66903;59.926;30.404;2023-03-23T18:11:12;2.28;;;0.80;;
77736;SDS011;66903;59.926;30.404;2023-03-23T18:16:12;1.75;;;0.80;;
77736;SDS011;66903;59.926;30.404;2023-03-23T18:21:13;2.30;;;0.70;;
77736;SDS011;66903;59.926;30.404;2023-03-23T18:26:13;3.45;;;0.98;;
77736;SDS011;66903;59.926;30.404;2023-03-23T18:31:15;2.97;;;0.73;;
77736;SDS011;66903;59.926;30.404;2023-03-23T18:36:18;2.65;;;0.88;;
77736;SDS011;66903;59.926;30.404;2023-03-23T18:41:20;2.25;;;0.75;;
77736;SDS011;66903;59.926;30.404;2023-03-23T18:46:20;4.28;;;0.90;;
77736;SDS011;66903;59.926;30.404;2023-03-23T18:51:21;2.67;;;0.80;;
77736;SDS011;66903;59.926;30.404;2023-03-23T18:56:22;4.30;;;0.70;;
77736;SDS011;66903;59.926;30.404;2023-03-23T19:01:23;3.15;;;0.80;;
77736;SDS011;66903;59.926;30.404;2023-03-23T19:06:24;6.78;;;0.80;;
77736;SDS011;66903;59.926;30.404;2023-03-23T19:11:26;5.05;;;0.65;;
77736;SDS011;66903;59.926;30.404;2023-03-23T19:16:27;4.60;;;0.73;;
77736;SDS011;66903;59.926;30.404;2023-03-23T19:21:30;3.33;;;0.75;;
77736;SDS011;66903;59.926;30.404;2023-03-23T19:26:32;2.20;;;0.60;;
77736;SDS011;66903;59.926;30.404;2023-03-23T19:31:34;7.15;;;0.90;;
77736;SDS011;66903;59.926;30.404;2023-03-23T19:36:35;2.80;;;0.88;;
77736;SDS011;66903;59.926;30.404;2023-03-23T19:41:36;2.33;;;0.80;;
77736;SDS011;66903;59.926;30.404;2023-03-23T19:46:37;2.42;;;0.68;;
77736;SDS011;66903;59.926;30.404;2023-03-23T19:51:38;3.83;;;0.90;;
77736;SDS011;66903;59.926;30.404;2023-03-23T19:56:39;3.03;;;0.68;;
77736;SDS011;66903;59.926;30.404;2023-03-23T20:01:42;2.95;;;0.88;;
77736;SDS011;66903;59.926;30.404;2023-03-23T20:06:43;1.02;;;0.60;;
77736;SDS011;66903;59.926;30.404;2023-03-23T20:11:43;2.40;;;0.80;;
77736;SDS011;66903;59.926;30.404;2023-03-23T20:16:44;2.13;;;0.75;;
77736;SDS011;66903;59.926;30.404;2023-03-23T20:21:44;5.82;;;1.13;;
77736;SDS011;66903;59.926;30.404;2023-03-23T20:26:45;5.97;;;1.48;;
77736;SDS011;66903;59.926;30.404;2023-03-23T20:31:45;8.57;;;2.38;;
77736;SDS011;66903;59.926;30.404;2023-03-23T20:36:46;6.15;;;1.70;;
77736;SDS011;66903;59.926;30.404;2023-03-23T20:41:49;8.25;;;1.80;;
77736;SDS011;66903;59.926;30.404;2023-03-23T20:46:53;4.63;;;1.15;;
77736;SDS011;66903;59.926;30.404;2023-03-23T20:51:55;3.67;;;0.85;;
77736;SDS011;66903;59.926;30.404;2023-03-23T20:56:56;2.88;;;0.95;;
77736;SDS011;66903;59.926;30.404;2023-03-23T21:02:00;3.78;;;1.08;;
77736;SDS011;66903;59.926;30.404;2023-03-23T21:07:00;5.72;;;0.90;;
77736;SDS011;66903;59.926;30.404;2023-03-23T21:12:01;3.83;;;1.00;;
77736;SDS011;66903;59.926;30.404;2023-03-23T21:17:05;2.83;;;0.80;;
77736;SDS011;66903;59.926;30.404;2023-03-23T21:22:06;1.98;;;0.63;;
77736;SDS011;66903;59.926;30.404;2023-03-23T21:27:08;2.08;;;0.80;;
77736;SDS011;66903;59.926;30.404;2023-03-23T21:32:09;3.15;;;1.00;;
77736;SDS011;66903;59.926;30.404;2023-03-23T21:37:12;3.80;;;1.10;;
77736;SDS011;66903;59.926;30.404;2023-03-23T21:42:15;3.20;;;0.90;;
77736;SDS011;66903;59.926;30.404;2023-03-23T21:47:15;2.97;;;0.70;;
77736;SDS011;66903;59.926;30.404;2023-03-23T21:52:17;3.53;;;0.90;;
77736;SDS011;66903;59.926;30.404;2023-03-23T21:57:17;2.42;;;0.70;;
77736;SDS011;66903;59.926;30.404;2023-03-23T22:02:19;1.85;;;0.60;;
77736;SDS011;66903;59.926;30.404;2023-03-23T22:07:19;2.25;;;0.57;;
77736;SDS011;66903;59.926;30.404;2023-03-23T22:12:22;2.05;;;0.70;;
77736;SDS011;66903;59.926;30.404;2023-03-23T22:17:23;2.78;;;0.73;;
77736;SDS011;66903;59.926;30.404;2023-03-23T22:28:14;1.88;;;0.63;;
77736;SDS011;66903;59.926;30.404;2023-03-23T22:33:15;1.45;;;0.40;;
77736;SDS011;66903;59.926;30.404;2023-03-23T22:38:16;2.72;;;0.60;;
77736;SDS011;66903;59.926;30.404;2023-03-23T22:43:17;2.28;;;0.75;;
77736;SDS011;66903;59.926;30.404;2023-03-23T22:48:18;2.90;;;0.98;;
77736;SDS011;66903;59.926;30.404;2023-03-23T22:59:06;3.00;;;0.85;;
77736;SDS011;66903;59.926;30.404;2023-03-23T23:04:08;1.95;;;0.70;;
77736;SDS011;66903;59.926;30.404;2023-03-23T23:09:08;5.47;;;0.90;;
77736;SDS011;66903;59.926;30.404;2023-03-23T23:14:09;3.05;;;0.70;;
77736;SDS011;66903;59.926;30.404;2023-03-23T23:19:10;3.67;;;0.90;;
77736;SDS011;66903;59.926;30.404;2023-03-23T23:24:11;2.85;;;0.70;;
77736;SDS011;66903;59.926;30.404;2023-03-23T23:29:18;2.15;;;0.60;;
77736;SDS011;66903;59.926;30.404;2023-03-23T23:34:18;2.63;;;0.75;;
77736;SDS011;66903;59.926;30.404;2023-03-23T23:39:22;2.40;;;0.50;;
77736;SDS011;66903;59.926;30.404;2023-03-23T23:44:22;2.45;;;0.80;;
77736;SDS011;66903;59.926;30.404;2023-03-23T23:49:23;2.65;;;0.80;;
77736;SDS011;66903;59.926;30.404;2023-03-23T23:54:30;3.92;;;0.70;;
